sensor_id;sensor_type;location;lat;lon;timestamp;temperature;humidity
32296;DHT22;18781;51.550;5.418;2023-10-13T00:00:33;20.70;80.00
32296;DHT22;18781;51.550;5.418;2023-10-13T00:03:02;20.70;79.90
32296;DHT22;18781;51.550;5.418;2023-10-13T00:05:29;20.70;79.90
32296;DHT22;18781;51.550;5.418;2023-10-13T00:07:57;20.70;79.90
32296;DHT22;18781;51.550;5.418;2023-10-13T00:10:27;20.70;79.90
32296;DHT22;18781;51.550;5.418;2023-10-13T00:12:52;20.70;79.80
32296;DHT22;18781;51.550;5.418;2023-10-13T00:15:18;20.70;79.70
32296;DHT22;18781;51.550;5.418;2023-10-13T00:17:53;20.70;79.70
32296;DHT22;18781;51.550;5.418;2023-10-13T00:20:21;20.70;79.80
32296;DHT22;18781;51.550;5.418;2023-10-13T00:23:03;20.70;79.70
32296;DHT22;18781;51.550;5.418;2023-10-13T00:25:29;20.70;79.70
32296;DHT22;18781;51.550;5.418;2023-10-13T00:28:09;20.70;79.70
32296;DHT22;18781;51.550;5.418;2023-10-13T00:30:34;20.70;79.70
32296;DHT22;18781;51.550;5.418;2023-10-13T00:33:00;20.70;79.60
32296;DHT22;18781;51.550;5.418;2023-10-13T00:35:27;20.70;79.60
32296;DHT22;18781;51.550;5.418;2023-10-13T00:38:05;20.60;79.60
32296;DHT22;18781;51.550;5.418;2023-10-13T00:40:42;20.60;79.60
32296;DHT22;18781;51.550;5.418;2023-10-13T00:43:10;20.70;79.70
32296;DHT22;18781;51.550;5.418;2023-10-13T00:45:53;20.60;79.60
32296;DHT22;18781;51.550;5.418;2023-10-13T00:48:43;20.60;79.70
32296;DHT22;18781;51.550;5.418;2023-10-13T00:51:12;20.60;79.60
32296;DHT22;18781;51.550;5.418;2023-10-13T00:53:59;20.60;79.60
32296;DHT22;18781;51.550;5.418;2023-10-13T00:56:26;20.60;79.60
32296;DHT22;18781;51.550;5.418;2023-10-13T00:58:56;20.60;79.70
32296;DHT22;18781;51.550;5.418;2023-10-13T01:01:28;20.50;79.70
32296;DHT22;18781;51.550;5.418;2023-10-13T01:03:58;20.60;79.80
32296;DHT22;18781;51.550;5.418;2023-10-13T01:06:30;20.50;79.80
32296;DHT22;18781;51.550;5.418;2023-10-13T01:09:04;20.50;79.80
32296;DHT22;18781;51.550;5.418;2023-10-13T01:11:41;20.50;79.70
32296;DHT22;18781;51.550;5.418;2023-10-13T01:14:11;20.60;79.80
32296;DHT22;18781;51.550;5.418;2023-10-13T01:16:38;20.50;79.80
32296;DHT22;18781;51.550;5.418;2023-10-13T01:19:13;20.50;79.80
32296;DHT22;18781;51.550;5.418;2023-10-13T01:21:40;20.50;79.80
32296;DHT22;18781;51.550;5.418;2023-10-13T01:24:13;20.50;79.80
32296;DHT22;18781;51.550;5.418;2023-10-13T01:26:44;20.50;79.80
32296;DHT22;18781;51.550;5.418;2023-10-13T01:29:10;20.50;79.80
32296;DHT22;18781;51.550;5.418;2023-10-13T01:31:40;20.50;79.80
32296;DHT22;18781;51.550;5.418;2023-10-13T01:34:21;20.50;79.80
32296;DHT22;18781;51.550;5.418;2023-10-13T01:36:52;20.50;79.90
32296;DHT22;18781;51.550;5.418;2023-10-13T01:39:23;20.50;79.80
32296;DHT22;18781;51.550;5.418;2023-10-13T01:41:52;20.50;79.90
32296;DHT22;18781;51.550;5.418;2023-10-13T01:44:25;20.50;80.20
32296;DHT22;18781;51.550;5.418;2023-10-13T01:46:56;20.40;79.80
32296;DHT22;18781;51.550;5.418;2023-10-13T01:49:24;20.50;79.90
32296;DHT22;18781;51.550;5.418;2023-10-13T01:51:50;20.50;79.90
32296;DHT22;18781;51.550;5.418;2023-10-13T01:54:16;20.40;79.80
32296;DHT22;18781;51.550;5.418;2023-10-13T01:56:42;20.40;79.90
32296;DHT22;18781;51.550;5.418;2023-10-13T01:59:11;20.40;79.90
32296;DHT22;18781;51.550;5.418;2023-10-13T02:01:37;20.40;79.90
32296;DHT22;18781;51.550;5.418;2023-10-13T02:04:03;20.40;79.90
32296;DHT22;18781;51.550;5.418;2023-10-13T02:06:34;20.40;80.00
32296;DHT22;18781;51.550;5.418;2023-10-13T02:09:03;20.40;80.00
32296;DHT22;18781;51.550;5.418;2023-10-13T02:11:42;20.40;80.00
32296;DHT22;18781;51.550;5.418;2023-10-13T02:14:11;20.40;80.00
32296;DHT22;18781;51.550;5.418;2023-10-13T02:16:38;20.40;80.30
32296;DHT22;18781;51.550;5.418;2023-10-13T02:19:03;20.40;80.00
32296;DHT22;18781;51.550;5.418;2023-10-13T02:21:30;20.40;80.10
32296;DHT22;18781;51.550;5.418;2023-10-13T02:23:58;20.40;80.20
32296;DHT22;18781;51.550;5.418;2023-10-13T02:26:30;20.40;80.20
32296;DHT22;18781;51.550;5.418;2023-10-13T02:29:00;20.40;80.30
32296;DHT22;18781;51.550;5.418;2023-10-13T02:31:30;20.40;80.40
32296;DHT22;18781;51.550;5.418;2023-10-13T02:33:55;20.40;80.40
32296;DHT22;18781;51.550;5.418;2023-10-13T02:36:23;20.40;80.40
32296;DHT22;18781;51.550;5.418;2023-10-13T02:39:04;20.40;80.40
32296;DHT22;18781;51.550;5.418;2023-10-13T02:41:35;20.40;80.40
32296;DHT22;18781;51.550;5.418;2023-10-13T02:44:05;20.40;80.50
32296;DHT22;18781;51.550;5.418;2023-10-13T02:46:34;20.40;80.60
32296;DHT22;18781;51.550;5.418;2023-10-13T02:49:05;20.40;80.60
32296;DHT22;18781;51.550;5.418;2023-10-13T02:51:40;20.40;80.70
32296;DHT22;18781;51.550;5.418;2023-10-13T02:54:09;20.40;80.80
32296;DHT22;18781;51.550;5.418;2023-10-13T02:56:43;20.40;80.80
32296;DHT22;18781;51.550;5.418;2023-10-13T02:59:15;20.40;80.90
32296;DHT22;18781;51.550;5.418;2023-10-13T03:01:40;20.40;80.90
32296;DHT22;18781;51.550;5.418;2023-10-13T03:04:07;20.40;80.90
32296;DHT22;18781;51.550;5.418;2023-10-13T03:06:38;20.40;81.00
32296;DHT22;18781;51.550;5.418;2023-10-13T03:09:10;20.40;81.00
32296;DHT22;18781;51.550;5.418;2023-10-13T03:11:48;20.40;81.10
32296;DHT22;18781;51.550;5.418;2023-10-13T03:14:18;20.40;81.20
32296;DHT22;18781;51.550;5.418;2023-10-13T03:16:53;20.40;81.20
32296;DHT22;18781;51.550;5.418;2023-10-13T03:19:19;20.40;81.20
32296;DHT22;18781;51.550;5.418;2023-10-13T03:21:45;20.40;81.20
32296;DHT22;18781;51.550;5.418;2023-10-13T03:24:21;20.40;81.20
32296;DHT22;18781;51.550;5.418;2023-10-13T03:27:04;20.40;81.20
32296;DHT22;18781;51.550;5.418;2023-10-13T03:29:38;20.40;81.20
32296;DHT22;18781;51.550;5.418;2023-10-13T03:32:14;20.40;81.30
32296;DHT22;18781;51.550;5.418;2023-10-13T03:34:44;20.40;81.40
32296;DHT22;18781;51.550;5.418;2023-10-13T03:37:25;20.50;81.60
32296;DHT22;18781;51.550;5.418;2023-10-13T03:40:07;20.50;81.50
32296;DHT22;18781;51.550;5.418;2023-10-13T03:42:46;20.50;81.60
32296;DHT22;18781;51.550;5.418;2023-10-13T03:45:25;20.50;81.60
32296;DHT22;18781;51.550;5.418;2023-10-13T03:47:52;20.50;81.60
32296;DHT22;18781;51.550;5.418;2023-10-13T03:50:18;20.50;81.60
32296;DHT22;18781;51.550;5.418;2023-10-13T03:52:55;20.50;81.70
32296;DHT22;18781;51.550;5.418;2023-10-13T03:55:24;20.50;81.80
32296;DHT22;18781;51.550;5.418;2023-10-13T03:57:53;20.50;82.00
32296;DHT22;18781;51.550;5.418;2023-10-13T04:00:20;20.50;81.60
32296;DHT22;18781;51.550;5.418;2023-10-13T04:02:49;20.60;81.70
32296;DHT22;18781;51.550;5.418;2023-10-13T04:05:32;20.60;81.80
32296;DHT22;18781;51.550;5.418;2023-10-13T04:08:04;20.60;82.00
32296;DHT22;18781;51.550;5.418;2023-10-13T04:11:05;20.60;82.10
32296;DHT22;18781;51.550;5.418;2023-10-13T04:13:49;20.60;82.00
32296;DHT22;18781;51.550;5.418;2023-10-13T04:16:35;20.60;82.00
32296;DHT22;18781;51.550;5.418;2023-10-13T04:19:02;20.60;82.10
32296;DHT22;18781;51.550;5.418;2023-10-13T04:21:28;20.60;82.20
32296;DHT22;18781;51.550;5.418;2023-10-13T04:24:11;20.60;82.30
32296;DHT22;18781;51.550;5.418;2023-10-13T04:26:48;20.60;82.40
32296;DHT22;18781;51.550;5.418;2023-10-13T04:29:33;20.70;82.60
32296;DHT22;18781;51.550;5.418;2023-10-13T04:32:16;20.70;82.40
32296;DHT22;18781;51.550;5.418;2023-10-13T04:34:59;20.70;82.50
32296;DHT22;18781;51.550;5.418;2023-10-13T04:37:37;20.70;82.70
32296;DHT22;18781;51.550;5.418;2023-10-13T04:40:22;20.70;83.30
32296;DHT22;18781;51.550;5.418;2023-10-13T04:42:52;20.70;82.60
32296;DHT22;18781;51.550;5.418;2023-10-13T04:45:29;20.70;82.70
32296;DHT22;18781;51.550;5.418;2023-10-13T04:47:59;20.80;82.70
32296;DHT22;18781;51.550;5.418;2023-10-13T04:50:59;20.80;82.60
32296;DHT22;18781;51.550;5.418;2023-10-13T04:53:45;20.80;82.90
32296;DHT22;18781;51.550;5.418;2023-10-13T04:56:37;20.80;82.90
32296;DHT22;18781;51.550;5.418;2023-10-13T04:59:25;20.80;82.90
32296;DHT22;18781;51.550;5.418;2023-10-13T05:02:09;20.80;82.90
32296;DHT22;18781;51.550;5.418;2023-10-13T05:04:53;20.80;83.00
32296;DHT22;18781;51.550;5.418;2023-10-13T05:07:34;20.80;83.00
32296;DHT22;18781;51.550;5.418;2023-10-13T05:10:19;20.80;83.10
32296;DHT22;18781;51.550;5.418;2023-10-13T05:13:03;20.90;83.20
32296;DHT22;18781;51.550;5.418;2023-10-13T05:15:50;20.90;83.20
32296;DHT22;18781;51.550;5.418;2023-10-13T05:18:35;20.90;83.20
32296;DHT22;18781;51.550;5.418;2023-10-13T05:21:19;20.90;83.20
32296;DHT22;18781;51.550;5.418;2023-10-13T05:24:04;20.90;83.20
32296;DHT22;18781;51.550;5.418;2023-10-13T05:26:48;20.90;83.20
32296;DHT22;18781;51.550;5.418;2023-10-13T05:29:32;20.90;83.10
32296;DHT22;18781;51.550;5.418;2023-10-13T05:32:17;20.90;83.10
32296;DHT22;18781;51.550;5.418;2023-10-13T05:35:01;21.00;83.20
32296;DHT22;18781;51.550;5.418;2023-10-13T05:37:45;21.00;83.20
32296;DHT22;18781;51.550;5.418;2023-10-13T05:40:29;21.00;83.10
32296;DHT22;18781;51.550;5.418;2023-10-13T05:43:13;21.00;83.10
32296;DHT22;18781;51.550;5.418;2023-10-13T05:46:02;21.00;83.10
32296;DHT22;18781;51.550;5.418;2023-10-13T05:48:48;21.00;83.20
32296;DHT22;18781;51.550;5.418;2023-10-13T05:51:32;21.00;83.10
32296;DHT22;18781;51.550;5.418;2023-10-13T05:54:01;21.00;83.20
32296;DHT22;18781;51.550;5.418;2023-10-13T05:56:46;21.00;83.00
32296;DHT22;18781;51.550;5.418;2023-10-13T05:59:32;21.00;83.10
32296;DHT22;18781;51.550;5.418;2023-10-13T06:02:17;21.00;83.00
32296;DHT22;18781;51.550;5.418;2023-10-13T06:05:03;21.00;83.00
32296;DHT22;18781;51.550;5.418;2023-10-13T06:07:48;21.00;83.00
32296;DHT22;18781;51.550;5.418;2023-10-13T06:10:32;21.00;83.00
32296;DHT22;18781;51.550;5.418;2023-10-13T06:13:17;21.00;83.10
32296;DHT22;18781;51.550;5.418;2023-10-13T06:16:12;21.00;83.00
32296;DHT22;18781;51.550;5.418;2023-10-13T06:18:57;21.10;83.10
32296;DHT22;18781;51.550;5.418;2023-10-13T06:21:42;21.00;83.00
32296;DHT22;18781;51.550;5.418;2023-10-13T06:24:27;21.10;83.00
32296;DHT22;18781;51.550;5.418;2023-10-13T06:27:12;21.00;82.90
32296;DHT22;18781;51.550;5.418;2023-10-13T06:29:57;21.00;82.80
32296;DHT22;18781;51.550;5.418;2023-10-13T06:32:23;21.10;82.80
32296;DHT22;18781;51.550;5.418;2023-10-13T06:34:52;21.00;82.80
32296;DHT22;18781;51.550;5.418;2023-10-13T06:37:26;21.10;82.80
32296;DHT22;18781;51.550;5.418;2023-10-13T06:39:59;21.10;82.70
32296;DHT22;18781;51.550;5.418;2023-10-13T06:42:31;21.00;82.70
32296;DHT22;18781;51.550;5.418;2023-10-13T06:45:00;21.10;82.70
32296;DHT22;18781;51.550;5.418;2023-10-13T06:47:36;21.00;82.60
32296;DHT22;18781;51.550;5.418;2023-10-13T06:50:09;21.00;82.60
32296;DHT22;18781;51.550;5.418;2023-10-13T06:52:48;21.10;82.60
32296;DHT22;18781;51.550;5.418;2023-10-13T06:55:14;21.10;82.60
32296;DHT22;18781;51.550;5.418;2023-10-13T06:57:49;21.00;82.60
32296;DHT22;18781;51.550;5.418;2023-10-13T07:00:17;21.10;82.70
32296;DHT22;18781;51.550;5.418;2023-10-13T07:02:53;21.10;82.70
32296;DHT22;18781;51.550;5.418;2023-10-13T07:05:19;21.10;82.70
32296;DHT22;18781;51.550;5.418;2023-10-13T07:07:45;21.00;82.60
32296;DHT22;18781;51.550;5.418;2023-10-13T07:10:12;21.10;82.70
32296;DHT22;18781;51.550;5.418;2023-10-13T07:12:41;21.10;82.80
32296;DHT22;18781;51.550;5.418;2023-10-13T07:15:10;21.10;82.80
32296;DHT22;18781;51.550;5.418;2023-10-13T07:17:48;21.10;82.80
32296;DHT22;18781;51.550;5.418;2023-10-13T07:20:20;21.10;82.90
32296;DHT22;18781;51.550;5.418;2023-10-13T07:23:09;21.10;82.90
32296;DHT22;18781;51.550;5.418;2023-10-13T07:25:37;21.10;82.90
32296;DHT22;18781;51.550;5.418;2023-10-13T07:28:04;21.10;82.90
32296;DHT22;18781;51.550;5.418;2023-10-13T07:30:30;21.20;83.00
32296;DHT22;18781;51.550;5.418;2023-10-13T07:33:07;21.20;83.00
32296;DHT22;18781;51.550;5.418;2023-10-13T07:35:36;21.20;83.00
32296;DHT22;18781;51.550;5.418;2023-10-13T07:38:02;21.20;83.00
32296;DHT22;18781;51.550;5.418;2023-10-13T07:40:33;21.20;83.00
32296;DHT22;18781;51.550;5.418;2023-10-13T07:43:01;21.20;82.90
32296;DHT22;18781;51.550;5.418;2023-10-13T07:45:29;21.30;83.00
32296;DHT22;18781;51.550;5.418;2023-10-13T07:48:16;21.30;83.00
32296;DHT22;18781;51.550;5.418;2023-10-13T07:50:58;21.30;82.90
32296;DHT22;18781;51.550;5.418;2023-10-13T07:53:27;21.40;82.90
32296;DHT22;18781;51.550;5.418;2023-10-13T07:56:02;21.30;82.60
32296;DHT22;18781;51.550;5.418;2023-10-13T07:58:31;21.40;82.60
32296;DHT22;18781;51.550;5.418;2023-10-13T08:00:57;21.40;82.40
32296;DHT22;18781;51.550;5.418;2023-10-13T08:03:33;21.40;82.60
32296;DHT22;18781;51.550;5.418;2023-10-13T08:06:16;21.40;82.40
32296;DHT22;18781;51.550;5.418;2023-10-13T08:08:41;21.40;82.20
32296;DHT22;18781;51.550;5.418;2023-10-13T08:11:10;21.50;82.20
32296;DHT22;18781;51.550;5.418;2023-10-13T08:13:40;21.50;82.20
32296;DHT22;18781;51.550;5.418;2023-10-13T08:16:15;21.50;82.10
32296;DHT22;18781;51.550;5.418;2023-10-13T08:18:49;21.50;82.10
32296;DHT22;18781;51.550;5.418;2023-10-13T08:21:16;21.50;81.80
32296;DHT22;18781;51.550;5.418;2023-10-13T08:23:43;21.60;81.50
32296;DHT22;18781;51.550;5.418;2023-10-13T08:26:22;21.60;81.70
32296;DHT22;18781;51.550;5.418;2023-10-13T08:29:04;21.60;81.40
32296;DHT22;18781;51.550;5.418;2023-10-13T08:31:50;21.70;81.30
32296;DHT22;18781;51.550;5.418;2023-10-13T08:34:35;21.70;81.30
32296;DHT22;18781;51.550;5.418;2023-10-13T08:37:10;21.70;81.30
32296;DHT22;18781;51.550;5.418;2023-10-13T08:39:55;21.80;81.00
32296;DHT22;18781;51.550;5.418;2023-10-13T08:42:30;21.80;80.90
32296;DHT22;18781;51.550;5.418;2023-10-13T08:45:11;21.90;80.50
32296;DHT22;18781;51.550;5.418;2023-10-13T08:47:50;21.90;80.20
32296;DHT22;18781;51.550;5.418;2023-10-13T08:53:18;22.00;79.90
32296;DHT22;18781;51.550;5.418;2023-10-13T08:56:03;22.00;79.70
32296;DHT22;18781;51.550;5.418;2023-10-13T08:58:41;22.00;79.40
32296;DHT22;18781;51.550;5.418;2023-10-13T09:01:36;22.00;79.30
32296;DHT22;18781;51.550;5.418;2023-10-13T09:04:17;22.10;79.30
32296;DHT22;18781;51.550;5.418;2023-10-13T09:07:03;22.10;79.30
32296;DHT22;18781;51.550;5.418;2023-10-13T09:12:11;22.20;78.90
32296;DHT22;18781;51.550;5.418;2023-10-13T09:14:38;22.20;78.70
32296;DHT22;18781;51.550;5.418;2023-10-13T09:17:09;22.20;78.80
32296;DHT22;18781;51.550;5.418;2023-10-13T09:19:55;22.30;78.60
32296;DHT22;18781;51.550;5.418;2023-10-13T09:22:25;22.30;78.50
32296;DHT22;18781;51.550;5.418;2023-10-13T09:24:58;22.30;78.40
32296;DHT22;18781;51.550;5.418;2023-10-13T09:27:25;22.40;79.00
32296;DHT22;18781;51.550;5.418;2023-10-13T09:29:59;22.40;78.20
32296;DHT22;18781;51.550;5.418;2023-10-13T09:32:43;22.40;78.00
32296;DHT22;18781;51.550;5.418;2023-10-13T09:35:16;22.40;78.00
32296;DHT22;18781;51.550;5.418;2023-10-13T09:37:43;22.50;77.30
32296;DHT22;18781;51.550;5.418;2023-10-13T09:40:15;22.50;77.40
32296;DHT22;18781;51.550;5.418;2023-10-13T09:42:51;22.50;77.60
32296;DHT22;18781;51.550;5.418;2023-10-13T09:45:18;22.50;77.30
32296;DHT22;18781;51.550;5.418;2023-10-13T09:47:47;22.50;77.30
32296;DHT22;18781;51.550;5.418;2023-10-13T09:50:19;22.60;77.10
32296;DHT22;18781;51.550;5.418;2023-10-13T09:52:51;22.60;77.00
32296;DHT22;18781;51.550;5.418;2023-10-13T09:55:27;22.60;76.70
32296;DHT22;18781;51.550;5.418;2023-10-13T09:58:07;22.70;76.10
32296;DHT22;18781;51.550;5.418;2023-10-13T10:00:46;22.70;75.70
32296;DHT22;18781;51.550;5.418;2023-10-13T10:03:15;22.70;75.70
32296;DHT22;18781;51.550;5.418;2023-10-13T10:06:01;22.70;75.70
32296;DHT22;18781;51.550;5.418;2023-10-13T10:09:03;22.80;75.80
32296;DHT22;18781;51.550;5.418;2023-10-13T10:12:48;22.80;75.50
32296;DHT22;18781;51.550;5.418;2023-10-13T10:17:22;22.90;74.70
32296;DHT22;18781;51.550;5.418;2023-10-13T10:19:52;22.90;74.80
32296;DHT22;18781;51.550;5.418;2023-10-13T10:22:26;22.90;74.50
32296;DHT22;18781;51.550;5.418;2023-10-13T10:25:13;23.00;74.20
32296;DHT22;18781;51.550;5.418;2023-10-13T10:27:56;23.00;73.90
32296;DHT22;18781;51.550;5.418;2023-10-13T10:30:26;23.00;73.80
32296;DHT22;18781;51.550;5.418;2023-10-13T10:32:56;23.00;74.20
32296;DHT22;18781;51.550;5.418;2023-10-13T10:35:25;23.00;73.40
32296;DHT22;18781;51.550;5.418;2023-10-13T10:38:17;23.00;73.60
32296;DHT22;18781;51.550;5.418;2023-10-13T10:40:51;23.00;73.30
32296;DHT22;18781;51.550;5.418;2023-10-13T10:43:18;23.00;73.40
32296;DHT22;18781;51.550;5.418;2023-10-13T10:45:47;23.10;73.30
32296;DHT22;18781;51.550;5.418;2023-10-13T10:48:16;23.10;72.50
32296;DHT22;18781;51.550;5.418;2023-10-13T10:50:54;23.10;72.70
32296;DHT22;18781;51.550;5.418;2023-10-13T10:53:24;23.10;72.60
32296;DHT22;18781;51.550;5.418;2023-10-13T10:56:06;23.20;72.40
32296;DHT22;18781;51.550;5.418;2023-10-13T10:58:48;23.20;72.20
32296;DHT22;18781;51.550;5.418;2023-10-13T11:01:15;23.20;72.50
32296;DHT22;18781;51.550;5.418;2023-10-13T11:03:58;23.20;72.10
32296;DHT22;18781;51.550;5.418;2023-10-13T11:06:25;23.20;71.70
32296;DHT22;18781;51.550;5.418;2023-10-13T11:09:07;23.30;71.80
32296;DHT22;18781;51.550;5.418;2023-10-13T11:11:45;23.30;72.00
32296;DHT22;18781;51.550;5.418;2023-10-13T11:14:20;23.30;71.30
32296;DHT22;18781;51.550;5.418;2023-10-13T11:16:49;23.30;71.40
32296;DHT22;18781;51.550;5.418;2023-10-13T11:19:21;23.40;71.00
32296;DHT22;18781;51.550;5.418;2023-10-13T11:22:16;23.40;71.30
32296;DHT22;18781;51.550;5.418;2023-10-13T11:25:03;23.40;71.00
32296;DHT22;18781;51.550;5.418;2023-10-13T11:27:39;23.40;71.30
32296;DHT22;18781;51.550;5.418;2023-10-13T11:30:17;23.50;71.00
32296;DHT22;18781;51.550;5.418;2023-10-13T11:33:04;23.50;70.70
32296;DHT22;18781;51.550;5.418;2023-10-13T11:35:36;23.50;70.60
32296;DHT22;18781;51.550;5.418;2023-10-13T11:38:20;23.50;70.40
32296;DHT22;18781;51.550;5.418;2023-10-13T11:40:53;23.60;70.40
32296;DHT22;18781;51.550;5.418;2023-10-13T11:43:35;23.60;70.40
32296;DHT22;18781;51.550;5.418;2023-10-13T11:46:08;23.60;70.00
32296;DHT22;18781;51.550;5.418;2023-10-13T11:48:33;23.70;70.10
32296;DHT22;18781;51.550;5.418;2023-10-13T11:51:01;23.70;69.80
32296;DHT22;18781;51.550;5.418;2023-10-13T11:53:27;23.80;68.70
32296;DHT22;18781;51.550;5.418;2023-10-13T11:55:55;23.80;68.80
32296;DHT22;18781;51.550;5.418;2023-10-13T11:58:21;23.80;68.40
32296;DHT22;18781;51.550;5.418;2023-10-13T12:00:47;23.90;68.40
32296;DHT22;18781;51.550;5.418;2023-10-13T12:03:31;23.90;67.80
32296;DHT22;18781;51.550;5.418;2023-10-13T12:06:15;23.90;67.90
32296;DHT22;18781;51.550;5.418;2023-10-13T12:08:59;24.00;68.00
32296;DHT22;18781;51.550;5.418;2023-10-13T12:11:40;24.00;67.70
32296;DHT22;18781;51.550;5.418;2023-10-13T12:14:13;24.00;67.80
32296;DHT22;18781;51.550;5.418;2023-10-13T12:16:55;24.10;67.10
32296;DHT22;18781;51.550;5.418;2023-10-13T12:19:22;24.10;67.30
32296;DHT22;18781;51.550;5.418;2023-10-13T12:21:53;24.20;67.70
32296;DHT22;18781;51.550;5.418;2023-10-13T12:24:23;24.20;67.30
32296;DHT22;18781;51.550;5.418;2023-10-13T12:27:04;24.20;67.30
32296;DHT22;18781;51.550;5.418;2023-10-13T12:29:50;24.30;67.00
32296;DHT22;18781;51.550;5.418;2023-10-13T12:32:22;24.30;67.10
32296;DHT22;18781;51.550;5.418;2023-10-13T12:34:49;24.30;66.90
32296;DHT22;18781;51.550;5.418;2023-10-13T12:37:29;24.40;66.40
32296;DHT22;18781;51.550;5.418;2023-10-13T12:40:08;24.40;66.40
32296;DHT22;18781;51.550;5.418;2023-10-13T12:43:04;24.40;66.10
32296;DHT22;18781;51.550;5.418;2023-10-13T12:45:50;24.50;65.90
32296;DHT22;18781;51.550;5.418;2023-10-13T12:48:35;24.50;65.80
32296;DHT22;18781;51.550;5.418;2023-10-13T12:51:20;24.60;65.30
32296;DHT22;18781;51.550;5.418;2023-10-13T12:53:52;24.60;65.10
32296;DHT22;18781;51.550;5.418;2023-10-13T12:56:18;24.60;67.30
32296;DHT22;18781;51.550;5.418;2023-10-13T12:58:54;24.70;67.00
32296;DHT22;18781;51.550;5.418;2023-10-13T13:01:23;24.60;64.10
32296;DHT22;18781;51.550;5.418;2023-10-13T13:03:52;24.70;66.20
32296;DHT22;18781;51.550;5.418;2023-10-13T13:06:23;24.70;64.70
32296;DHT22;18781;51.550;5.418;2023-10-13T13:08:56;24.70;63.80
32296;DHT22;18781;51.550;5.418;2023-10-13T13:11:25;24.70;63.80
32296;DHT22;18781;51.550;5.418;2023-10-13T13:13:53;24.70;63.50
32296;DHT22;18781;51.550;5.418;2023-10-13T13:16:19;24.80;63.20
32296;DHT22;18781;51.550;5.418;2023-10-13T13:18:50;24.80;62.90
32296;DHT22;18781;51.550;5.418;2023-10-13T13:21:15;24.80;62.60
32296;DHT22;18781;51.550;5.418;2023-10-13T13:23:53;24.80;62.80
32296;DHT22;18781;51.550;5.418;2023-10-13T13:26:22;24.80;62.50
32296;DHT22;18781;51.550;5.418;2023-10-13T13:28:48;24.80;62.50
32296;DHT22;18781;51.550;5.418;2023-10-13T13:31:21;24.90;62.30
32296;DHT22;18781;51.550;5.418;2023-10-13T13:33:55;24.80;61.80
32296;DHT22;18781;51.550;5.418;2023-10-13T13:36:21;24.90;61.20
32296;DHT22;18781;51.550;5.418;2023-10-13T13:38:47;24.90;61.80
32296;DHT22;18781;51.550;5.418;2023-10-13T13:41:17;24.90;61.40
32296;DHT22;18781;51.550;5.418;2023-10-13T13:43:47;24.90;61.70
32296;DHT22;18781;51.550;5.418;2023-10-13T13:46:23;24.80;61.50
32296;DHT22;18781;51.550;5.418;2023-10-13T13:48:58;24.90;61.60
32296;DHT22;18781;51.550;5.418;2023-10-13T13:51:28;24.90;61.40
32296;DHT22;18781;51.550;5.418;2023-10-13T13:53:54;24.90;61.70
32296;DHT22;18781;51.550;5.418;2023-10-13T13:56:20;24.90;63.30
32296;DHT22;18781;51.550;5.418;2023-10-13T13:58:47;24.80;61.00
32296;DHT22;18781;51.550;5.418;2023-10-13T14:01:13;24.80;61.10
32296;DHT22;18781;51.550;5.418;2023-10-13T14:03:45;24.80;61.30
32296;DHT22;18781;51.550;5.418;2023-10-13T14:06:24;24.80;60.70
32296;DHT22;18781;51.550;5.418;2023-10-13T14:08:57;24.80;61.20
32296;DHT22;18781;51.550;5.418;2023-10-13T14:11:26;24.80;61.00
32296;DHT22;18781;51.550;5.418;2023-10-13T14:14:05;24.80;60.90
32296;DHT22;18781;51.550;5.418;2023-10-13T14:16:38;24.80;60.70
32296;DHT22;18781;51.550;5.418;2023-10-13T14:19:15;24.80;60.80
32296;DHT22;18781;51.550;5.418;2023-10-13T14:21:52;24.80;60.80
32296;DHT22;18781;51.550;5.418;2023-10-13T14:24:19;24.80;60.30
32296;DHT22;18781;51.550;5.418;2023-10-13T14:26:53;24.80;60.40
32296;DHT22;18781;51.550;5.418;2023-10-13T14:29:18;24.80;60.60
32296;DHT22;18781;51.550;5.418;2023-10-13T14:31:44;24.80;60.60
32296;DHT22;18781;51.550;5.418;2023-10-13T14:34:10;24.80;61.10
32296;DHT22;18781;51.550;5.418;2023-10-13T14:36:36;24.80;61.20
32296;DHT22;18781;51.550;5.418;2023-10-13T14:39:05;24.90;60.70
32296;DHT22;18781;51.550;5.418;2023-10-13T14:41:38;24.80;60.60
32296;DHT22;18781;51.550;5.418;2023-10-13T14:44:03;24.90;60.50
32296;DHT22;18781;51.550;5.418;2023-10-13T14:46:32;24.90;61.90
32296;DHT22;18781;51.550;5.418;2023-10-13T14:49:05;24.90;60.20
32296;DHT22;18781;51.550;5.418;2023-10-13T14:51:31;24.90;60.20
32296;DHT22;18781;51.550;5.418;2023-10-13T14:53:57;24.90;60.10
32296;DHT22;18781;51.550;5.418;2023-10-13T14:56:26;24.90;60.00
32296;DHT22;18781;51.550;5.418;2023-10-13T14:58:53;24.90;60.30
32296;DHT22;18781;51.550;5.418;2023-10-13T15:01:20;24.90;60.50
32296;DHT22;18781;51.550;5.418;2023-10-13T15:03:48;24.80;59.90
32296;DHT22;18781;51.550;5.418;2023-10-13T15:06:17;24.80;60.40
32296;DHT22;18781;51.550;5.418;2023-10-13T15:08:47;24.80;60.40
32296;DHT22;18781;51.550;5.418;2023-10-13T15:11:14;24.80;60.20
32296;DHT22;18781;51.550;5.418;2023-10-13T15:13:40;24.80;60.50
32296;DHT22;18781;51.550;5.418;2023-10-13T15:16:16;24.80;60.40
32296;DHT22;18781;51.550;5.418;2023-10-13T15:18:43;24.70;60.30
32296;DHT22;18781;51.550;5.418;2023-10-13T15:21:09;24.70;60.50
32296;DHT22;18781;51.550;5.418;2023-10-13T15:23:35;24.70;60.50
32296;DHT22;18781;51.550;5.418;2023-10-13T15:26:11;24.70;60.90
32296;DHT22;18781;51.550;5.418;2023-10-13T15:28:40;24.70;61.10
32296;DHT22;18781;51.550;5.418;2023-10-13T15:31:17;24.60;61.40
32296;DHT22;18781;51.550;5.418;2023-10-13T15:33:58;24.60;61.30
32296;DHT22;18781;51.550;5.418;2023-10-13T15:36:25;24.50;61.50
32296;DHT22;18781;51.550;5.418;2023-10-13T15:38:51;24.50;61.50
32296;DHT22;18781;51.550;5.418;2023-10-13T15:41:30;24.50;61.50
32296;DHT22;18781;51.550;5.418;2023-10-13T15:43:58;24.40;61.90
32296;DHT22;18781;51.550;5.418;2023-10-13T15:46:24;24.40;62.00
32296;DHT22;18781;51.550;5.418;2023-10-13T15:48:53;24.30;61.80
32296;DHT22;18781;51.550;5.418;2023-10-13T15:51:19;24.30;61.90
32296;DHT22;18781;51.550;5.418;2023-10-13T15:53:45;24.30;62.30
32296;DHT22;18781;51.550;5.418;2023-10-13T15:56:16;24.20;62.10
32296;DHT22;18781;51.550;5.418;2023-10-13T15:58:46;24.20;62.40
32296;DHT22;18781;51.550;5.418;2023-10-13T16:01:15;24.10;62.60
32296;DHT22;18781;51.550;5.418;2023-10-13T16:03:42;24.10;63.00
32296;DHT22;18781;51.550;5.418;2023-10-13T16:06:15;24.00;63.00
32296;DHT22;18781;51.550;5.418;2023-10-13T16:08:41;24.00;62.70
32296;DHT22;18781;51.550;5.418;2023-10-13T16:11:11;23.90;62.80
32296;DHT22;18781;51.550;5.418;2023-10-13T16:13:43;23.90;62.80
32296;DHT22;18781;51.550;5.418;2023-10-13T16:16:23;23.80;63.00
32296;DHT22;18781;51.550;5.418;2023-10-13T16:18:49;23.80;63.20
32296;DHT22;18781;51.550;5.418;2023-10-13T16:21:15;23.70;62.90